createdAt,value
2017-10-10T00:00:16.323Z,6.18
2017-10-10T00:00:50.017Z,5.43
2017-10-10T00:01:23.729Z,5.55
2017-10-10T00:01:57.432Z,5.60
2017-10-10T00:02:30.987Z,5.30
2017-10-10T00:03:05.468Z,5.65
2017-10-10T00:03:39.176Z,5.35
2017-10-10T00:04:13.197Z,5.50
2017-10-10T00:04:47.663Z,5.30
2017-10-10T00:05:21.391Z,5.15
2017-10-10T00:05:55.113Z,4.90
2017-10-10T00:06:29.056Z,5.68
2017-10-10T00:07:02.752Z,5.57
2017-10-10T00:07:36.447Z,4.97
2017-10-10T00:08:10.152Z,5.37
2017-10-10T00:08:44.610Z,5.68
2017-10-10T00:09:18.689Z,5.95
2017-10-10T00:09:52.385Z,5.82
2017-10-10T00:10:26.086Z,5.80
2017-10-10T00:11:00.792Z,5.50
2017-10-10T00:11:34.485Z,5.22
2017-10-10T00:12:08.184Z,6.07
2017-10-10T00:12:41.893Z,5.68
2017-10-10T00:13:15.588Z,5.40
2017-10-10T00:13:49.098Z,5.12
2017-10-10T00:14:23.415Z,6.10
2017-10-10T00:14:57.162Z,5.82
2017-10-10T00:15:30.860Z,4.97
2017-10-10T00:16:04.564Z,4.70
2017-10-10T00:16:39.083Z,6.07
2017-10-10T00:17:13.544Z,6.43
2017-10-10T00:17:47.254Z,5.35
2017-10-10T00:18:20.949Z,6.30
2017-10-10T00:18:54.644Z,5.45
2017-10-10T00:19:29.191Z,6.07
2017-10-10T00:20:02.906Z,5.82
2017-10-10T00:20:36.615Z,6.60
2017-10-10T00:21:10.308Z,5.57
2017-10-10T00:21:43.833Z,5.80
2017-10-10T00:22:18.144Z,5.70
2017-10-10T00:22:51.833Z,5.40
2017-10-10T00:23:25.533Z,5.35
2017-10-10T00:23:59.223Z,5.43
2017-10-10T00:24:33.018Z,5.85
2017-10-10T00:25:06.713Z,5.18
2017-10-10T00:25:40.404Z,5.55
2017-10-10T00:26:14.099Z,5.28
2017-10-10T00:26:47.805Z,5.47
2017-10-10T00:27:21.541Z,5.78
2017-10-10T00:27:56.009Z,5.55
2017-10-10T00:28:29.707Z,5.50
2017-10-10T00:29:03.427Z,6.32
2017-10-10T00:29:37.911Z,5.97
2017-10-10T00:30:11.621Z,5.40
2017-10-10T00:30:46.093Z,5.72
2017-10-10T00:31:19.818Z,5.45
2017-10-10T00:31:54.289Z,5.72
2017-10-10T00:32:27.972Z,5.60
2017-10-10T00:33:01.685Z,6.12
2017-10-10T00:33:35.386Z,5.60
2017-10-10T00:34:09.081Z,6.20
2017-10-10T00:34:43.600Z,6.57
2017-10-10T00:35:17.722Z,6.32
2017-10-10T00:35:51.442Z,6.20
2017-10-10T00:36:25.147Z,6.37
2017-10-10T00:36:58.850Z,6.72
2017-10-10T00:37:32.536Z,5.70
2017-10-10T00:38:06.269Z,6.35
2017-10-10T00:38:39.974Z,5.68
2017-10-10T00:39:13.673Z,6.18
2017-10-10T00:39:47.388Z,6.30
2017-10-10T00:40:21.090Z,5.85
2017-10-10T00:40:54.455Z,6.03
2017-10-10T00:41:28.160Z,5.90
2017-10-10T00:42:02.640Z,6.40
2017-10-10T00:42:36.342Z,6.68
2017-10-10T00:43:10.042Z,6.37
2017-10-10T00:43:43.749Z,6.43
2017-10-10T00:44:17.445Z,6.45
2017-10-10T00:44:52.223Z,7.30
2017-10-10T00:45:25.957Z,6.18
2017-10-10T00:46:00.423Z,6.75
2017-10-10T00:46:34.119Z,6.47
2017-10-10T00:47:07.849Z,6.50
2017-10-10T00:47:42.319Z,6.97
2017-10-10T00:48:15.829Z,6.70
2017-10-10T00:48:50.855Z,7.12
2017-10-10T00:49:24.553Z,7.20
2017-10-10T00:49:59.384Z,6.53
2017-10-10T00:50:33.855Z,6.90
2017-10-10T00:51:07.028Z,7.30
2017-10-10T00:51:40.725Z,7.75
2017-10-10T00:52:14.439Z,6.75
2017-10-10T00:52:48.904Z,7.12
2017-10-10T00:53:22.613Z,7.35
2017-10-10T00:53:55.973Z,6.97
2017-10-10T00:54:29.667Z,6.80
2017-10-10T00:55:03.406Z,7.45
2017-10-10T00:55:37.185Z,7.22
2017-10-10T00:56:10.983Z,7.43
2017-10-10T00:56:44.783Z,7.78
2017-10-10T00:57:18.569Z,6.60
2017-10-10T00:57:52.701Z,8.63
2017-10-10T00:58:25.719Z,7.20
2017-10-10T00:58:58.741Z,7.37
2017-10-10T00:59:32.454Z,8.07
2017-10-10T01:00:05.877Z,7.35
2017-10-10T01:00:40.017Z,7.75
2017-10-10T01:01:13.543Z,7.87
2017-10-10T01:01:47.241Z,7.62
2017-10-10T01:02:20.598Z,7.97
2017-10-10T01:02:54.319Z,7.93
2017-10-10T01:03:27.710Z,8.00
2017-10-10T01:04:01.404Z,7.80
2017-10-10T01:04:35.151Z,8.32
2017-10-10T01:05:09.213Z,7.95
2017-10-10T01:05:42.918Z,8.25
2017-10-10T01:06:16.613Z,8.27
2017-10-10T01:06:50.322Z,7.12
2017-10-10T01:07:23.685Z,8.20
2017-10-10T01:07:57.392Z,7.35
2017-10-10T01:08:31.097Z,7.43
2017-10-10T01:09:04.210Z,7.40
2017-10-10T01:09:38.681Z,6.87
2017-10-10T01:10:12.049Z,7.25
2017-10-10T01:10:45.760Z,7.75
2017-10-10T01:11:19.460Z,7.10
2017-10-10T01:11:52.833Z,7.95
2017-10-10T01:12:26.529Z,8.35
2017-10-10T01:13:00.242Z,7.82
2017-10-10T01:13:34.370Z,7.47
2017-10-10T01:14:08.078Z,8.68
2017-10-10T01:14:41.457Z,8.25
2017-10-10T01:15:15.529Z,7.55
2017-10-10T01:15:48.909Z,9.60
2017-10-10T01:16:22.262Z,9.57
2017-10-10T01:16:55.970Z,10.82
2017-10-10T01:17:30.270Z,11.23
2017-10-10T01:18:04.397Z,11.93
2017-10-10T01:18:38.116Z,11.27
2017-10-10T01:19:11.136Z,11.70
2017-10-10T01:19:49.889Z,10.75
2017-10-10T01:20:22.735Z,11.50
2017-10-10T01:20:55.752Z,12.32
2017-10-10T01:21:28.769Z,11.25
2017-10-10T01:22:02.892Z,10.50
2017-10-10T01:22:36.069Z,11.65
2017-10-10T01:23:09.420Z,11.88
2017-10-10T01:23:43.201Z,11.70
2017-10-10T01:24:17.111Z,12.75
2017-10-10T01:24:50.903Z,13.15
2017-10-10T01:25:24.696Z,14.13
2017-10-10T01:25:58.471Z,12.55
2017-10-10T01:26:31.494Z,13.25
2017-10-10T01:27:04.539Z,10.63
2017-10-10T01:27:38.347Z,13.48
2017-10-10T01:28:11.356Z,16.30
2017-10-10T01:28:44.378Z,15.77
2017-10-10T01:29:18.172Z,15.55
2017-10-10T01:29:51.958Z,15.70
2017-10-10T01:30:25.772Z,15.55
2017-10-10T01:30:59.132Z,15.38
2017-10-10T01:31:32.720Z,15.68
2017-10-10T01:32:06.500Z,15.38
2017-10-10T01:32:39.516Z,15.38
2017-10-10T01:33:12.528Z,16.42
2017-10-10T01:33:45.540Z,13.98
2017-10-10T01:34:19.327Z,14.75
2017-10-10T01:34:53.102Z,15.48
2017-10-10T01:35:26.816Z,13.90
2017-10-10T01:36:00.608Z,15.18
2017-10-10T01:36:34.404Z,13.80
2017-10-10T01:37:08.197Z,13.02
2017-10-10T01:37:41.824Z,13.95
2017-10-10T01:38:14.842Z,13.10
2017-10-10T01:38:47.851Z,13.20
2017-10-10T01:39:20.859Z,14.90
2017-10-10T01:39:53.871Z,14.15
2017-10-10T01:40:28.497Z,15.57
2017-10-10T01:41:02.291Z,14.07
2017-10-10T01:41:36.434Z,13.48
2017-10-10T01:42:09.457Z,11.90
2017-10-10T01:42:43.589Z,12.73
2017-10-10T01:43:16.600Z,12.90
2017-10-10T01:43:49.969Z,13.07
2017-10-10T01:44:22.980Z,13.48
2017-10-10T01:44:56.569Z,14.20
2017-10-10T01:45:30.411Z,13.45
2017-10-10T01:46:03.782Z,13.95
2017-10-10T01:46:37.160Z,14.25
2017-10-10T01:47:10.592Z,13.60
2017-10-10T01:47:44.417Z,12.20
2017-10-10T01:48:18.884Z,13.45
2017-10-10T01:48:52.248Z,13.85
2017-10-10T01:49:25.604Z,14.25
2017-10-10T01:49:59.315Z,12.70
2017-10-10T01:50:33.399Z,13.95
2017-10-10T01:51:07.096Z,12.73
2017-10-10T01:51:40.805Z,13.43
2017-10-10T01:52:14.316Z,12.10
2017-10-10T01:52:48.006Z,11.20
2017-10-10T01:53:21.699Z,13.50
2017-10-10T01:53:55.049Z,13.60
2017-10-10T01:54:28.444Z,12.80
2017-10-10T01:55:02.186Z,13.50
2017-10-10T01:55:36.321Z,11.75
2017-10-10T01:56:09.693Z,10.65
2017-10-10T01:56:43.406Z,12.65
2017-10-10T01:57:16.769Z,13.43
2017-10-10T01:57:50.465Z,12.43
2017-10-10T01:58:24.194Z,12.85
2017-10-10T01:58:58.690Z,14.15
2017-10-10T01:59:32.399Z,12.48
2017-10-10T02:00:06.889Z,13.65
2017-10-10T02:00:40.862Z,13.00
2017-10-10T02:01:13.878Z,12.88
2017-10-10T02:01:46.958Z,12.50
2017-10-10T02:02:20.755Z,13.75
2017-10-10T02:02:55.233Z,13.32
2017-10-10T02:03:28.618Z,13.70
2017-10-10T02:04:02.326Z,13.30
2017-10-10T02:04:36.800Z,12.00
2017-10-10T02:05:10.180Z,12.93
2017-10-10T02:05:43.777Z,12.90
2017-10-10T02:06:17.500Z,11.95
2017-10-10T02:06:51.980Z,13.35
2017-10-10T02:07:25.706Z,11.52
2017-10-10T02:07:59.843Z,13.85
2017-10-10T02:08:33.208Z,12.05
2017-10-10T02:09:06.583Z,12.88
2017-10-10T02:09:40.301Z,12.55
2017-10-10T02:10:14.017Z,12.40
2017-10-10T02:10:47.774Z,13.27
2017-10-10T02:11:21.292Z,12.07
2017-10-10T02:11:54.677Z,12.77
2017-10-10T02:12:28.376Z,14.02
2017-10-10T02:13:02.852Z,11.48
2017-10-10T02:13:36.578Z,11.88
2017-10-10T02:14:10.300Z,12.75
2017-10-10T02:14:44.777Z,12.80
2017-10-10T02:15:18.492Z,11.98
2017-10-10T02:15:53.244Z,13.18
2017-10-10T02:16:26.761Z,13.43
2017-10-10T02:17:00.472Z,13.02
2017-10-10T02:17:34.956Z,13.18
2017-10-10T02:18:08.690Z,13.60
2017-10-10T02:18:43.194Z,13.70
2017-10-10T02:19:16.719Z,13.05
2017-10-10T02:19:50.240Z,12.90
2017-10-10T02:20:23.765Z,12.37
2017-10-10T02:20:57.846Z,14.23
2017-10-10T02:21:32.312Z,13.18
2017-10-10T02:22:06.013Z,14.38
2017-10-10T02:22:39.728Z,12.20
2017-10-10T02:23:14.196Z,12.13
2017-10-10T02:23:47.924Z,13.02
2017-10-10T02:24:21.621Z,13.00
2017-10-10T02:24:56.094Z,14.48
2017-10-10T02:25:29.804Z,14.48
2017-10-10T02:26:03.544Z,14.60
2017-10-10T02:26:37.245Z,13.65
2017-10-10T02:27:10.956Z,14.02
2017-10-10T02:27:44.677Z,15.30
2017-10-10T02:28:19.157Z,14.00
2017-10-10T02:28:52.873Z,15.18
2017-10-10T02:29:27.349Z,14.25
2017-10-10T02:30:01.057Z,12.90
2017-10-10T02:30:34.584Z,13.75
2017-10-10T02:31:08.532Z,14.38
2017-10-10T02:31:42.249Z,14.43
2017-10-10T02:32:16.737Z,11.80
2017-10-10T02:32:50.449Z,12.23
2017-10-10T02:33:24.747Z,14.57
2017-10-10T02:33:58.284Z,14.75
2017-10-10T02:34:31.988Z,13.35
2017-10-10T02:35:05.700Z,14.20
2017-10-10T02:35:39.432Z,13.43
2017-10-10T02:36:13.515Z,13.77
2017-10-10T02:36:47.798Z,14.57
2017-10-10T02:37:21.509Z,14.55
2017-10-10T02:37:55.796Z,13.43
2017-10-10T02:38:30.088Z,14.13
2017-10-10T02:39:03.466Z,13.18
2017-10-10T02:39:37.170Z,13.00
2017-10-10T02:40:11.462Z,15.05
2017-10-10T02:40:44.980Z,13.60
2017-10-10T02:41:19.598Z,13.07
2017-10-10T02:41:53.125Z,13.52
2017-10-10T02:42:26.665Z,14.98
2017-10-10T02:43:00.957Z,16.80
2017-10-10T02:43:35.249Z,15.30
2017-10-10T02:44:09.724Z,15.80
2017-10-10T02:44:43.446Z,16.25
2017-10-10T02:45:16.976Z,14.55
2017-10-10T02:45:51.049Z,15.27
2017-10-10T02:46:25.541Z,16.90
2017-10-10T02:46:59.248Z,16.12
2017-10-10T02:47:33.736Z,15.45
2017-10-10T02:48:07.446Z,14.50
2017-10-10T02:48:41.921Z,15.88
2017-10-10T02:49:15.661Z,15.88
2017-10-10T02:49:49.400Z,14.73
2017-10-10T02:50:23.113Z,14.85
2017-10-10T02:50:56.917Z,13.90
2017-10-10T02:51:31.061Z,16.30
2017-10-10T02:52:04.094Z,16.00
2017-10-10T02:52:38.573Z,17.20
2017-10-10T02:53:12.291Z,14.60
2017-10-10T02:53:46.768Z,15.80
2017-10-10T02:54:20.491Z,15.68
2017-10-10T02:54:54.997Z,14.48
2017-10-10T02:55:29.472Z,14.73
2017-10-10T02:56:03.180Z,15.15
2017-10-10T02:56:37.029Z,16.15
2017-10-10T02:57:10.746Z,15.48
2017-10-10T02:57:44.469Z,15.07
2017-10-10T02:58:18.961Z,16.20
2017-10-10T02:58:52.694Z,17.77
2017-10-10T02:59:26.398Z,16.67
2017-10-10T03:00:00.106Z,17.37
2017-10-10T03:00:33.886Z,16.42
2017-10-10T03:01:07.613Z,16.65
2017-10-10T03:01:41.342Z,17.85
2017-10-10T03:02:15.053Z,17.90
2017-10-10T03:02:48.765Z,15.63
2017-10-10T03:03:22.482Z,17.30
2017-10-10T03:03:56.310Z,16.92
2017-10-10T03:04:30.014Z,17.02
2017-10-10T03:05:03.724Z,15.57
2017-10-10T03:05:37.088Z,16.30
2017-10-10T03:06:10.792Z,17.35
2017-10-10T03:06:44.522Z,16.20
2017-10-10T03:07:18.989Z,15.43
2017-10-10T03:07:52.698Z,16.67
2017-10-10T03:08:26.435Z,17.60
2017-10-10T03:09:00.900Z,16.95
2017-10-10T03:09:34.611Z,17.20
2017-10-10T03:10:09.096Z,17.98
2017-10-10T03:10:42.807Z,16.52
2017-10-10T03:11:16.529Z,16.55
2017-10-10T03:11:50.258Z,16.50
2017-10-10T03:12:23.993Z,17.55
2017-10-10T03:12:58.460Z,17.80
2017-10-10T03:13:32.174Z,16.80
2017-10-10T03:14:05.883Z,17.83
2017-10-10T03:14:40.350Z,16.20
2017-10-10T03:15:14.053Z,17.52
2017-10-10T03:15:47.781Z,14.25
2017-10-10T03:16:21.557Z,16.62
2017-10-10T03:16:56.386Z,17.50
2017-10-10T03:17:30.849Z,15.35
2017-10-10T03:18:04.550Z,16.67
2017-10-10T03:18:38.254Z,15.15
2017-10-10T03:19:11.964Z,17.27
2017-10-10T03:19:46.421Z,17.50
2017-10-10T03:20:20.140Z,16.25
2017-10-10T03:20:53.853Z,15.13
2017-10-10T03:21:27.562Z,16.37
2017-10-10T03:22:01.301Z,16.67
2017-10-10T03:22:34.668Z,17.90
2017-10-10T03:23:08.377Z,17.48
2017-10-10T03:23:42.076Z,17.33
2017-10-10T03:24:16.544Z,17.52
2017-10-10T03:24:50.250Z,16.67
2017-10-10T03:25:23.965Z,15.32
2017-10-10T03:25:57.659Z,16.25
2017-10-10T03:26:32.153Z,15.95
2017-10-10T03:27:06.180Z,16.05
2017-10-10T03:27:39.912Z,17.23
2017-10-10T03:28:13.640Z,17.75
2017-10-10T03:28:47.361Z,17.45
2017-10-10T03:29:21.070Z,16.02
2017-10-10T03:29:54.785Z,16.55
2017-10-10T03:30:28.626Z,16.80
2017-10-10T03:31:03.820Z,18.52
2017-10-10T03:31:37.535Z,18.20
2017-10-10T03:32:11.851Z,17.30
2017-10-10T03:32:45.576Z,16.92
2017-10-10T03:33:19.369Z,19.15
2017-10-10T03:33:53.077Z,14.10
2017-10-10T03:34:26.778Z,16.83
2017-10-10T03:35:01.801Z,17.98
2017-10-10T03:35:35.336Z,17.67
2017-10-10T03:36:09.059Z,17.83
2017-10-10T03:36:42.895Z,14.50
2017-10-10T03:37:17.512Z,17.12
2017-10-10T03:37:51.813Z,18.20
2017-10-10T03:38:26.323Z,16.37
2017-10-10T03:39:00.865Z,18.02
2017-10-10T03:39:34.581Z,17.80
2017-10-10T03:40:08.311Z,17.25
2017-10-10T03:40:42.784Z,16.83
2017-10-10T03:41:16.505Z,18.12
2017-10-10T03:41:51.015Z,16.48
2017-10-10T03:42:25.319Z,16.27
2017-10-10T03:42:59.808Z,16.95
2017-10-10T03:43:33.536Z,17.15
2017-10-10T03:44:08.032Z,18.98
2017-10-10T03:44:42.506Z,17.17
2017-10-10T03:45:16.044Z,15.05
2017-10-10T03:45:49.760Z,17.42
2017-10-10T03:46:23.472Z,17.80
2017-10-10T03:46:57.180Z,16.33
2017-10-10T03:47:31.212Z,16.15
2017-10-10T03:48:04.920Z,15.20
2017-10-10T03:48:38.678Z,17.50
2017-10-10T03:49:13.150Z,15.77
2017-10-10T03:49:46.858Z,16.52
2017-10-10T03:50:20.581Z,17.95
2017-10-10T03:50:54.284Z,17.17
2017-10-10T03:51:27.996Z,16.20
2017-10-10T03:52:01.756Z,15.57
2017-10-10T03:52:35.508Z,15.48
2017-10-10T03:53:09.220Z,16.98
2017-10-10T03:53:43.693Z,16.15
2017-10-10T03:54:17.407Z,15.38
2017-10-10T03:54:51.131Z,15.75
2017-10-10T03:55:24.829Z,15.60
2017-10-10T03:55:58.542Z,16.12
2017-10-10T03:56:32.283Z,16.37
2017-10-10T03:57:06.765Z,16.00
2017-10-10T03:57:40.149Z,17.55
2017-10-10T03:58:13.871Z,14.73
2017-10-10T03:58:48.372Z,17.00
2017-10-10T03:59:22.894Z,16.58
2017-10-10T03:59:56.609Z,16.87
2017-10-10T04:00:29.986Z,16.90
2017-10-10T04:01:03.694Z,17.02
2017-10-10T04:01:37.413Z,16.60
2017-10-10T04:02:11.125Z,17.75
2017-10-10T04:02:45.947Z,17.42
2017-10-10T04:03:20.428Z,16.40
2017-10-10T04:03:54.146Z,16.65
2017-10-10T04:04:28.624Z,17.48
2017-10-10T04:05:02.444Z,16.33
2017-10-10T04:05:36.925Z,17.60
2017-10-10T04:06:10.452Z,17.37
2017-10-10T04:06:44.167Z,16.45
2017-10-10T04:07:17.883Z,16.75
2017-10-10T04:07:51.602Z,15.93
2017-10-10T04:08:25.131Z,14.57
2017-10-10T04:08:58.685Z,14.87
2017-10-10T04:09:33.277Z,17.23
2017-10-10T04:10:06.994Z,17.98
2017-10-10T04:10:40.712Z,17.17
2017-10-10T04:11:14.256Z,16.95
2017-10-10T04:11:48.745Z,18.75
2017-10-10T04:12:22.461Z,17.70
2017-10-10T04:12:56.949Z,19.70
2017-10-10T04:13:30.467Z,19.20
2017-10-10T04:14:04.206Z,16.25
2017-10-10T04:14:38.038Z,17.52
2017-10-10T04:15:12.324Z,15.55
2017-10-10T04:15:46.056Z,19.90
2017-10-10T04:16:19.788Z,17.00
2017-10-10T04:16:53.514Z,18.67
2017-10-10T04:17:27.987Z,18.48
2017-10-10T04:18:02.020Z,19.85
2017-10-10T04:18:36.492Z,17.95
2017-10-10T04:19:10.221Z,19.15
2017-10-10T04:19:44.715Z,19.77
2017-10-10T04:20:18.425Z,19.60
2017-10-10T04:20:52.380Z,19.80
2017-10-10T04:21:26.091Z,20.85
2017-10-10T04:22:00.571Z,19.08
2017-10-10T04:22:34.277Z,21.20
2017-10-10T04:23:08.015Z,19.62
2017-10-10T04:23:41.734Z,18.48
2017-10-10T04:24:15.477Z,19.95
2017-10-10T04:24:49.949Z,19.00
2017-10-10T04:25:23.657Z,18.50
2017-10-10T04:25:57.433Z,19.10
2017-10-10T04:26:31.143Z,18.60
2017-10-10T04:27:04.860Z,20.15
2017-10-10T04:27:38.981Z,20.62
2017-10-10T04:28:13.070Z,19.48
2017-10-10T04:28:47.016Z,21.52
2017-10-10T04:29:22.237Z,19.65
2017-10-10T04:29:55.957Z,20.77
2017-10-10T04:30:30.425Z,20.55
2017-10-10T04:31:04.167Z,19.33
2017-10-10T04:31:37.872Z,19.10
2017-10-10T04:32:11.592Z,17.87
2017-10-10T04:32:45.338Z,19.27
2017-10-10T04:33:19.068Z,20.17
2017-10-10T04:33:52.784Z,17.70
2017-10-10T04:34:26.494Z,19.35
2017-10-10T04:35:01.013Z,19.87
2017-10-10T04:35:35.320Z,19.10
2017-10-10T04:36:09.818Z,18.95
2017-10-10T04:36:44.302Z,20.50
2017-10-10T04:37:18.028Z,16.70
2017-10-10T04:37:52.333Z,16.67
2017-10-10T04:38:26.527Z,20.12
2017-10-10T04:39:00.669Z,18.87
2017-10-10T04:39:34.405Z,20.42
2017-10-10T04:40:08.126Z,19.17
2017-10-10T04:40:41.700Z,19.80
2017-10-10T04:41:16.219Z,19.58
2017-10-10T04:41:49.998Z,17.50
2017-10-10T04:42:24.517Z,18.83
2017-10-10T04:42:58.232Z,17.30
2017-10-10T04:43:31.976Z,19.15
2017-10-10T04:44:06.466Z,19.48
2017-10-10T04:44:40.189Z,18.92
2017-10-10T04:45:14.689Z,19.20
2017-10-10T04:45:49.175Z,20.12
2017-10-10T04:46:22.881Z,20.10
2017-10-10T04:46:56.607Z,20.50
2017-10-10T04:47:30.358Z,20.55
2017-10-10T04:48:04.171Z,19.67
2017-10-10T04:48:39.025Z,19.27
2017-10-10T04:49:12.739Z,18.77
2017-10-10T04:49:46.472Z,18.60
2017-10-10T04:50:21.050Z,20.85
2017-10-10T04:50:54.769Z,18.37
2017-10-10T04:51:29.240Z,19.48
2017-10-10T04:52:02.960Z,19.05
2017-10-10T04:52:37.475Z,20.10
2017-10-10T04:53:11.990Z,19.67
2017-10-10T04:53:46.835Z,20.02
2017-10-10T04:54:20.558Z,25.10
2017-10-10T04:54:54.285Z,36.63
2017-10-10T04:55:28.779Z,22.20
2017-10-10T04:56:03.266Z,19.98
2017-10-10T04:56:37.098Z,19.58
2017-10-10T04:57:11.572Z,19.83
2017-10-10T04:57:45.097Z,19.27
2017-10-10T04:58:19.402Z,20.12
2017-10-10T04:58:54.025Z,21.30
2017-10-10T04:59:27.437Z,22.02
2017-10-10T05:00:01.182Z,20.10
2017-10-10T05:00:35.668Z,19.83
2017-10-10T05:01:09.465Z,19.48
2017-10-10T05:01:43.203Z,20.62
2017-10-10T05:02:16.929Z,21.42
2017-10-10T05:02:50.665Z,20.20
2017-10-10T05:03:25.133Z,20.30
2017-10-10T05:03:59.169Z,20.42
2017-10-10T05:04:33.646Z,20.05
2017-10-10T05:05:07.356Z,20.62
2017-10-10T05:05:41.833Z,19.50
2017-10-10T05:06:15.552Z,19.55
2017-10-10T05:06:50.030Z,17.52
2017-10-10T05:07:23.733Z,21.30
2017-10-10T05:07:57.478Z,19.85
2017-10-10T05:08:31.214Z,20.17
2017-10-10T05:09:04.061Z,20.30
2017-10-10T05:09:37.785Z,20.08
2017-10-10T05:10:12.273Z,21.00
2017-10-10T05:10:45.984Z,20.67
2017-10-10T05:11:19.525Z,21.73
2017-10-10T05:11:53.232Z,22.62
2017-10-10T05:12:26.951Z,19.15
2017-10-10T05:13:00.653Z,19.77
2017-10-10T05:13:35.266Z,19.52
2017-10-10T05:14:10.114Z,19.85
2017-10-10T05:14:43.834Z,18.62
2017-10-10T05:15:17.549Z,19.65
2017-10-10T05:15:52.034Z,19.98
2017-10-10T05:16:25.758Z,19.85
2017-10-10T05:17:00.233Z,21.40
2017-10-10T05:17:33.756Z,20.42
2017-10-10T05:18:08.060Z,20.42
2017-10-10T05:18:42.529Z,22.27
2017-10-10T05:19:16.272Z,22.45
2017-10-10T05:19:50.004Z,19.62
2017-10-10T05:20:23.704Z,18.92
2017-10-10T05:20:56.884Z,19.37
2017-10-10T05:21:30.593Z,20.23
2017-10-10T05:22:05.081Z,18.30
2017-10-10T05:22:38.798Z,19.65
2017-10-10T05:23:12.392Z,19.73
2017-10-10T05:23:46.868Z,19.65
2017-10-10T05:24:20.950Z,20.10
2017-10-10T05:24:54.910Z,19.67
2017-10-10T05:25:28.845Z,19.65
2017-10-10T05:26:02.221Z,20.45
2017-10-10T05:26:35.591Z,21.17
2017-10-10T05:27:09.312Z,19.67
2017-10-10T05:27:43.035Z,22.02
2017-10-10T05:28:17.499Z,19.35
2017-10-10T05:28:51.204Z,20.95
2017-10-10T05:29:24.584Z,19.80
2017-10-10T05:29:58.291Z,20.85
2017-10-10T05:30:31.997Z,21.25
2017-10-10T05:31:05.783Z,19.70
2017-10-10T05:31:39.495Z,21.08
2017-10-10T05:32:13.629Z,19.70
2017-10-10T05:32:46.458Z,22.33
2017-10-10T05:33:20.936Z,21.10
2017-10-10T05:33:54.301Z,22.37
2017-10-10T05:34:27.677Z,21.30
2017-10-10T05:35:01.028Z,21.30
2017-10-10T05:35:34.206Z,22.20
2017-10-10T05:36:07.568Z,22.05
2017-10-10T05:36:42.041Z,22.27
2017-10-10T05:37:15.763Z,20.77
2017-10-10T05:37:50.249Z,20.35
2017-10-10T05:38:23.961Z,22.25
2017-10-10T05:38:58.438Z,20.67
2017-10-10T05:39:32.280Z,22.20
2017-10-10T05:40:05.994Z,21.55
2017-10-10T05:40:39.696Z,23.70
2017-10-10T05:41:13.416Z,22.83
2017-10-10T05:41:47.643Z,24.05
2017-10-10T05:42:22.107Z,24.08
2017-10-10T05:42:55.620Z,21.33
2017-10-10T05:43:29.330Z,22.55
2017-10-10T05:44:03.808Z,22.25
2017-10-10T05:44:37.561Z,21.67
2017-10-10T05:45:11.284Z,24.37
2017-10-10T05:45:45.006Z,25.62
2017-10-10T05:46:19.300Z,22.60
2017-10-10T05:46:53.777Z,22.83
2017-10-10T05:47:27.496Z,24.73
2017-10-10T05:48:01.216Z,24.37
2017-10-10T05:48:34.757Z,22.02
2017-10-10T05:49:08.476Z,22.35
2017-10-10T05:49:43.009Z,22.85
2017-10-10T05:50:16.721Z,25.77
2017-10-10T05:50:50.439Z,22.05
2017-10-10T05:51:24.153Z,24.90
2017-10-10T05:51:58.630Z,23.73
2017-10-10T05:52:32.343Z,25.37
2017-10-10T05:53:06.084Z,24.02
2017-10-10T05:53:39.789Z,21.48
2017-10-10T05:54:13.498Z,22.95
2017-10-10T05:54:47.246Z,25.02
2017-10-10T05:55:20.977Z,23.45
2017-10-10T05:55:54.688Z,22.45
2017-10-10T05:56:28.394Z,23.40
2017-10-10T05:57:03.004Z,24.25
2017-10-10T05:57:37.476Z,24.80
2017-10-10T05:58:11.183Z,24.77
2017-10-10T05:58:44.996Z,25.48
2017-10-10T05:59:19.466Z,26.30
2017-10-10T05:59:53.513Z,24.35
2017-10-10T06:00:27.983Z,23.05
2017-10-10T06:01:01.693Z,24.02
2017-10-10T06:01:35.418Z,23.77
2017-10-10T06:02:09.135Z,23.38
2017-10-10T06:02:42.849Z,24.67
2017-10-10T06:03:16.573Z,25.00
2017-10-10T06:03:50.854Z,24.50
2017-10-10T06:04:24.393Z,25.33
2017-10-10T06:04:58.456Z,25.67
2017-10-10T06:05:32.929Z,26.67
2017-10-10T06:06:06.625Z,24.87
2017-10-10T06:06:40.445Z,24.75
2017-10-10T06:07:14.930Z,25.17
2017-10-10T06:07:48.465Z,24.60
2017-10-10T06:08:22.188Z,24.58
2017-10-10T06:08:55.916Z,23.38
2017-10-10T06:09:30.440Z,23.50
2017-10-10T06:10:04.013Z,25.33
2017-10-10T06:10:38.505Z,23.85
2017-10-10T06:11:12.225Z,22.85
2017-10-10T06:11:46.697Z,23.62
2017-10-10T06:12:20.415Z,26.25
2017-10-10T06:12:54.907Z,22.98
2017-10-10T06:13:28.623Z,23.58
2017-10-10T06:14:03.092Z,25.65
2017-10-10T06:14:36.798Z,24.35
2017-10-10T06:15:11.631Z,25.02
2017-10-10T06:15:46.141Z,24.42
2017-10-10T06:16:20.421Z,24.95
2017-10-10T06:16:54.136Z,22.02
2017-10-10T06:17:28.612Z,23.48
2017-10-10T06:18:02.317Z,25.67
2017-10-10T06:18:36.025Z,26.42
2017-10-10T06:19:10.499Z,22.20
2017-10-10T06:19:44.201Z,24.08
2017-10-10T06:20:17.925Z,26.55
2017-10-10T06:20:51.632Z,24.50
2017-10-10T06:21:25.339Z,24.55
2017-10-10T06:21:59.049Z,23.67
2017-10-10T06:22:32.764Z,24.73
2017-10-10T06:23:07.361Z,25.17
2017-10-10T06:23:41.068Z,24.83
2017-10-10T06:24:15.549Z,25.20
2017-10-10T06:24:49.252Z,22.35
2017-10-10T06:25:23.184Z,24.27
2017-10-10T06:25:56.958Z,21.58
2017-10-10T06:26:30.682Z,21.58
2017-10-10T06:27:04.392Z,21.23
2017-10-10T06:27:38.107Z,22.17
2017-10-10T06:28:11.800Z,23.42
2017-10-10T06:28:45.327Z,22.65
2017-10-10T06:29:18.848Z,24.00
2017-10-10T06:29:52.390Z,22.45
2017-10-10T06:30:26.392Z,22.90
2017-10-10T06:31:00.097Z,23.83
2017-10-10T06:31:33.628Z,22.65
2017-10-10T06:32:07.340Z,23.00
2017-10-10T06:32:41.877Z,23.85
2017-10-10T06:33:15.744Z,23.70
2017-10-10T06:33:50.544Z,22.15
2017-10-10T06:34:25.018Z,21.40
2017-10-10T06:34:58.758Z,23.10
2017-10-10T06:35:33.267Z,24.42
2017-10-10T06:36:07.751Z,24.27
2017-10-10T06:36:41.466Z,23.40
2017-10-10T06:37:15.944Z,24.08
2017-10-10T06:37:49.666Z,21.92
2017-10-10T06:38:24.144Z,22.83
2017-10-10T06:38:57.894Z,22.92
2017-10-10T06:39:31.615Z,22.62
2017-10-10T06:40:05.345Z,20.83
2017-10-10T06:40:40.166Z,22.10
2017-10-10T06:41:14.651Z,22.35
2017-10-10T06:41:48.368Z,21.75
2017-10-10T06:42:22.092Z,22.25
2017-10-10T06:42:55.797Z,23.12
2017-10-10T06:43:29.535Z,22.92
2017-10-10T06:44:04.051Z,21.05
2017-10-10T06:44:37.759Z,22.48
2017-10-10T06:45:11.477Z,22.02
2017-10-10T06:45:45.574Z,22.65
2017-10-10T06:46:19.313Z,23.05
2017-10-10T06:46:53.794Z,24.75
2017-10-10T06:47:27.616Z,22.27
2017-10-10T06:48:02.090Z,22.77
2017-10-10T06:48:35.613Z,22.85
2017-10-10T06:49:10.189Z,22.40
2017-10-10T06:49:43.924Z,22.92
2017-10-10T06:50:17.640Z,22.95
2017-10-10T06:50:51.364Z,24.17
2017-10-10T06:51:25.070Z,22.65
2017-10-10T06:51:58.600Z,22.62
2017-10-10T06:52:32.325Z,22.83
2017-10-10T06:53:05.870Z,22.83
2017-10-10T06:53:39.609Z,22.77
2017-10-10T06:54:13.336Z,22.80
2017-10-10T06:54:47.820Z,24.67
2017-10-10T06:55:21.531Z,24.52
2017-10-10T06:55:56.353Z,24.17
2017-10-10T06:56:30.134Z,22.92
2017-10-10T06:57:04.606Z,25.48
2017-10-10T06:57:38.317Z,22.52
2017-10-10T06:58:12.125Z,23.02
2017-10-10T06:58:46.601Z,23.52
2017-10-10T06:59:20.315Z,24.52
2017-10-10T06:59:54.931Z,23.02
2017-10-10T07:00:29.414Z,21.83
2017-10-10T07:01:03.132Z,23.83
2017-10-10T07:01:37.613Z,23.25
2017-10-10T07:02:11.341Z,24.87
2017-10-10T07:02:45.831Z,26.20
2017-10-10T07:03:20.353Z,23.08
2017-10-10T07:03:54.849Z,23.02
2017-10-10T07:04:29.158Z,22.92
2017-10-10T07:05:02.861Z,23.85
2017-10-10T07:05:37.345Z,23.50
2017-10-10T07:06:11.066Z,26.02
2017-10-10T07:06:44.796Z,24.02
2017-10-10T07:07:18.496Z,25.37
2017-10-10T07:07:52.219Z,24.37
2017-10-10T07:08:26.717Z,23.85
2017-10-10T07:09:00.423Z,24.65
2017-10-10T07:09:34.910Z,22.87
2017-10-10T07:10:08.637Z,23.95
2017-10-10T07:10:42.368Z,23.12
2017-10-10T07:11:16.104Z,22.92
2017-10-10T07:11:50.599Z,24.48
2017-10-10T07:12:24.329Z,24.50
2017-10-10T07:12:58.045Z,25.73
2017-10-10T07:13:31.755Z,25.90
2017-10-10T07:14:05.289Z,24.58
2017-10-10T07:14:39.012Z,24.65
2017-10-10T07:15:12.753Z,23.25
2017-10-10T07:15:47.234Z,22.90
2017-10-10T07:16:21.285Z,23.58
2017-10-10T07:16:55.003Z,23.38
2017-10-10T07:17:28.804Z,23.62
2017-10-10T07:18:02.549Z,24.05
2017-10-10T07:18:36.279Z,22.62
2017-10-10T07:19:10.009Z,23.75